sensor_id;sensor_type;location;lat;lon;timestamp;temperature;humidity
22173;DHT22;11252;50.596;17.648;2023-12-20T00:02:20;7.60;92.20
22173;DHT22;11252;50.596;17.648;2023-12-20T00:04:47;7.60;92.20
22173;DHT22;11252;50.596;17.648;2023-12-20T00:07:14;7.60;92.20
22173;DHT22;11252;50.596;17.648;2023-12-20T00:09:41;7.50;92.20
22173;DHT22;11252;50.596;17.648;2023-12-20T00:12:09;7.50;92.20
22173;DHT22;11252;50.596;17.648;2023-12-20T00:14:36;7.50;92.20
22173;DHT22;11252;50.596;17.648;2023-12-20T00:17:03;7.60;92.20
22173;DHT22;11252;50.596;17.648;2023-12-20T00:19:30;7.70;92.20
22173;DHT22;11252;50.596;17.648;2023-12-20T00:21:57;7.70;92.20
22173;DHT22;11252;50.596;17.648;2023-12-20T00:24:26;7.60;92.20
22173;DHT22;11252;50.596;17.648;2023-12-20T00:26:53;7.60;92.20
22173;DHT22;11252;50.596;17.648;2023-12-20T00:29:20;7.60;92.20
22173;DHT22;11252;50.596;17.648;2023-12-20T00:31:47;7.70;92.20
22173;DHT22;11252;50.596;17.648;2023-12-20T00:34:15;7.70;92.20
22173;DHT22;11252;50.596;17.648;2023-12-20T00:36:42;7.70;92.20
22173;DHT22;11252;50.596;17.648;2023-12-20T00:39:09;7.60;92.20
22173;DHT22;11252;50.596;17.648;2023-12-20T00:41:36;7.70;92.20
22173;DHT22;11252;50.596;17.648;2023-12-20T00:44:03;7.70;92.20
22173;DHT22;11252;50.596;17.648;2023-12-20T00:46:30;7.60;92.20
22173;DHT22;11252;50.596;17.648;2023-12-20T00:48:57;7.50;92.20
22173;DHT22;11252;50.596;17.648;2023-12-20T00:51:24;7.40;92.20
22173;DHT22;11252;50.596;17.648;2023-12-20T00:53:51;7.30;92.20
22173;DHT22;11252;50.596;17.648;2023-12-20T00:56:21;7.20;92.20
22173;DHT22;11252;50.596;17.648;2023-12-20T00:58:48;7.20;92.20
22173;DHT22;11252;50.596;17.648;2023-12-20T01:01:15;7.10;92.20
22173;DHT22;11252;50.596;17.648;2023-12-20T01:03:43;7.10;92.20
22173;DHT22;11252;50.596;17.648;2023-12-20T01:06:10;7.00;92.20
22173;DHT22;11252;50.596;17.648;2023-12-20T01:08:37;7.00;92.20
22173;DHT22;11252;50.596;17.648;2023-12-20T01:11:05;7.00;92.20
22173;DHT22;11252;50.596;17.648;2023-12-20T01:13:32;7.00;92.20
22173;DHT22;11252;50.596;17.648;2023-12-20T01:15:59;6.90;92.20
22173;DHT22;11252;50.596;17.648;2023-12-20T01:18:27;6.90;92.20
22173;DHT22;11252;50.596;17.648;2023-12-20T01:20:54;6.90;92.20
22173;DHT22;11252;50.596;17.648;2023-12-20T01:23:21;6.90;92.20
22173;DHT22;11252;50.596;17.648;2023-12-20T01:25:48;6.90;92.20
22173;DHT22;11252;50.596;17.648;2023-12-20T01:28:15;6.90;92.20
22173;DHT22;11252;50.596;17.648;2023-12-20T01:30:42;6.90;92.20
22173;DHT22;11252;50.596;17.648;2023-12-20T01:33:10;6.90;92.20
22173;DHT22;11252;50.596;17.648;2023-12-20T01:35:37;6.90;92.20
22173;DHT22;11252;50.596;17.648;2023-12-20T01:38:04;6.90;92.20
22173;DHT22;11252;50.596;17.648;2023-12-20T01:40:31;6.90;92.20
22173;DHT22;11252;50.596;17.648;2023-12-20T01:43:02;7.00;92.20
22173;DHT22;11252;50.596;17.648;2023-12-20T01:45:32;7.00;92.20
22173;DHT22;11252;50.596;17.648;2023-12-20T01:47:59;6.90;92.20
22173;DHT22;11252;50.596;17.648;2023-12-20T01:50:27;6.80;92.20
22173;DHT22;11252;50.596;17.648;2023-12-20T01:52:56;6.70;92.20
22173;DHT22;11252;50.596;17.648;2023-12-20T01:55:29;6.70;92.20
22173;DHT22;11252;50.596;17.648;2023-12-20T01:57:59;6.70;92.20
22173;DHT22;11252;50.596;17.648;2023-12-20T02:00:27;6.70;92.20
22173;DHT22;11252;50.596;17.648;2023-12-20T02:02:55;6.70;92.20
22173;DHT22;11252;50.596;17.648;2023-12-20T02:05:22;6.70;92.20
22173;DHT22;11252;50.596;17.648;2023-12-20T02:07:50;6.60;92.20
22173;DHT22;11252;50.596;17.648;2023-12-20T02:10:17;6.60;92.20
22173;DHT22;11252;50.596;17.648;2023-12-20T02:12:45;6.50;92.20
22173;DHT22;11252;50.596;17.648;2023-12-20T02:15:12;6.50;92.20
22173;DHT22;11252;50.596;17.648;2023-12-20T02:17:39;6.50;92.20
22173;DHT22;11252;50.596;17.648;2023-12-20T02:20:07;6.50;92.20
22173;DHT22;11252;50.596;17.648;2023-12-20T02:22:34;6.40;92.20
22173;DHT22;11252;50.596;17.648;2023-12-20T02:25:02;6.40;92.20
22173;DHT22;11252;50.596;17.648;2023-12-20T02:27:30;6.40;92.20
22173;DHT22;11252;50.596;17.648;2023-12-20T02:29:57;6.30;92.20
22173;DHT22;11252;50.596;17.648;2023-12-20T02:32:25;6.30;92.20
22173;DHT22;11252;50.596;17.648;2023-12-20T02:34:55;6.30;92.20
22173;DHT22;11252;50.596;17.648;2023-12-20T02:37:23;6.20;92.20
22173;DHT22;11252;50.596;17.648;2023-12-20T02:39:50;6.20;92.20
22173;DHT22;11252;50.596;17.648;2023-12-20T02:42:17;6.30;92.20
22173;DHT22;11252;50.596;17.648;2023-12-20T02:44:44;6.20;92.20
22173;DHT22;11252;50.596;17.648;2023-12-20T02:47:11;6.20;92.20
22173;DHT22;11252;50.596;17.648;2023-12-20T02:49:38;6.20;92.20
22173;DHT22;11252;50.596;17.648;2023-12-20T02:52:06;6.20;92.20
22173;DHT22;11252;50.596;17.648;2023-12-20T02:54:33;6.10;92.20
22173;DHT22;11252;50.596;17.648;2023-12-20T02:57:00;6.10;92.20
22173;DHT22;11252;50.596;17.648;2023-12-20T02:59:27;6.10;92.20
22173;DHT22;11252;50.596;17.648;2023-12-20T03:01:54;6.10;92.20
22173;DHT22;11252;50.596;17.648;2023-12-20T03:04:21;6.00;92.20
22173;DHT22;11252;50.596;17.648;2023-12-20T03:06:48;6.00;92.20
22173;DHT22;11252;50.596;17.648;2023-12-20T03:09:15;6.00;92.20
22173;DHT22;11252;50.596;17.648;2023-12-20T03:11:42;6.00;92.20
22173;DHT22;11252;50.596;17.648;2023-12-20T03:14:09;6.00;92.20
22173;DHT22;11252;50.596;17.648;2023-12-20T03:16:36;6.00;92.20
22173;DHT22;11252;50.596;17.648;2023-12-20T03:19:03;6.00;92.20
22173;DHT22;11252;50.596;17.648;2023-12-20T03:21:30;6.00;92.20
22173;DHT22;11252;50.596;17.648;2023-12-20T03:23:57;6.00;92.20
22173;DHT22;11252;50.596;17.648;2023-12-20T03:26:24;6.00;92.20
22173;DHT22;11252;50.596;17.648;2023-12-20T03:28:51;6.00;92.20
22173;DHT22;11252;50.596;17.648;2023-12-20T03:31:18;6.00;92.20
22173;DHT22;11252;50.596;17.648;2023-12-20T03:33:46;6.10;92.20
22173;DHT22;11252;50.596;17.648;2023-12-20T03:36:13;6.10;92.20
22173;DHT22;11252;50.596;17.648;2023-12-20T03:38:40;6.10;92.20
22173;DHT22;11252;50.596;17.648;2023-12-20T03:41:07;6.00;92.20
22173;DHT22;11252;50.596;17.648;2023-12-20T03:43:35;6.00;92.20
22173;DHT22;11252;50.596;17.648;2023-12-20T03:46:03;6.00;92.20
22173;DHT22;11252;50.596;17.648;2023-12-20T03:48:31;6.00;92.20
22173;DHT22;11252;50.596;17.648;2023-12-20T03:50:58;6.00;92.20
22173;DHT22;11252;50.596;17.648;2023-12-20T03:53:26;6.00;92.20
22173;DHT22;11252;50.596;17.648;2023-12-20T03:55:53;6.00;92.20
22173;DHT22;11252;50.596;17.648;2023-12-20T03:58:20;6.10;92.20
22173;DHT22;11252;50.596;17.648;2023-12-20T04:00:47;6.00;92.20
22173;DHT22;11252;50.596;17.648;2023-12-20T04:03:15;6.00;92.20
22173;DHT22;11252;50.596;17.648;2023-12-20T04:05:42;6.00;92.20
22173;DHT22;11252;50.596;17.648;2023-12-20T04:08:11;6.00;92.20
22173;DHT22;11252;50.596;17.648;2023-12-20T04:10:38;6.00;92.20
22173;DHT22;11252;50.596;17.648;2023-12-20T04:13:05;6.00;92.20
22173;DHT22;11252;50.596;17.648;2023-12-20T04:15:32;6.00;92.20
22173;DHT22;11252;50.596;17.648;2023-12-20T04:17:59;6.00;92.20
22173;DHT22;11252;50.596;17.648;2023-12-20T04:20:26;6.00;92.20
22173;DHT22;11252;50.596;17.648;2023-12-20T04:22:53;6.10;92.20
22173;DHT22;11252;50.596;17.648;2023-12-20T04:25:20;6.00;92.20
22173;DHT22;11252;50.596;17.648;2023-12-20T04:27:47;6.00;92.20
22173;DHT22;11252;50.596;17.648;2023-12-20T04:30:15;6.00;92.20
22173;DHT22;11252;50.596;17.648;2023-12-20T04:32:42;6.00;92.20
22173;DHT22;11252;50.596;17.648;2023-12-20T04:35:09;6.00;92.20
22173;DHT22;11252;50.596;17.648;2023-12-20T04:37:36;5.90;92.20
22173;DHT22;11252;50.596;17.648;2023-12-20T04:40:03;5.90;92.20
22173;DHT22;11252;50.596;17.648;2023-12-20T04:42:32;5.90;92.20
22173;DHT22;11252;50.596;17.648;2023-12-20T04:44:59;6.00;92.20
22173;DHT22;11252;50.596;17.648;2023-12-20T04:47:26;5.90;92.20
22173;DHT22;11252;50.596;17.648;2023-12-20T04:49:53;5.90;92.20
22173;DHT22;11252;50.596;17.648;2023-12-20T04:52:20;5.80;92.20
22173;DHT22;11252;50.596;17.648;2023-12-20T04:54:48;5.80;92.20
22173;DHT22;11252;50.596;17.648;2023-12-20T04:57:15;5.80;92.20
22173;DHT22;11252;50.596;17.648;2023-12-20T04:59:42;5.80;92.20
22173;DHT22;11252;50.596;17.648;2023-12-20T05:02:09;5.80;92.20
22173;DHT22;11252;50.596;17.648;2023-12-20T05:04:36;5.70;92.20
22173;DHT22;11252;50.596;17.648;2023-12-20T05:07:04;5.70;92.20
22173;DHT22;11252;50.596;17.648;2023-12-20T05:09:32;5.70;92.20
22173;DHT22;11252;50.596;17.648;2023-12-20T05:12:00;5.80;92.20
22173;DHT22;11252;50.596;17.648;2023-12-20T05:14:27;5.70;92.20
22173;DHT22;11252;50.596;17.648;2023-12-20T05:16:54;5.70;92.20
22173;DHT22;11252;50.596;17.648;2023-12-20T05:19:21;5.70;92.20
22173;DHT22;11252;50.596;17.648;2023-12-20T05:21:48;5.60;92.20
22173;DHT22;11252;50.596;17.648;2023-12-20T05:24:16;5.60;92.20
22173;DHT22;11252;50.596;17.648;2023-12-20T05:26:43;5.60;92.20
22173;DHT22;11252;50.596;17.648;2023-12-20T05:29:10;5.60;92.20
22173;DHT22;11252;50.596;17.648;2023-12-20T05:31:37;5.60;92.20
22173;DHT22;11252;50.596;17.648;2023-12-20T05:34:04;5.60;92.20
22173;DHT22;11252;50.596;17.648;2023-12-20T05:36:31;5.60;92.20
22173;DHT22;11252;50.596;17.648;2023-12-20T05:38:58;5.50;92.20
22173;DHT22;11252;50.596;17.648;2023-12-20T05:41:25;5.50;92.20
22173;DHT22;11252;50.596;17.648;2023-12-20T05:43:52;5.50;92.20
22173;DHT22;11252;50.596;17.648;2023-12-20T05:46:19;5.50;92.20
22173;DHT22;11252;50.596;17.648;2023-12-20T05:48:46;5.60;92.20
22173;DHT22;11252;50.596;17.648;2023-12-20T05:51:13;5.50;92.20
22173;DHT22;11252;50.596;17.648;2023-12-20T05:53:40;5.60;92.20
22173;DHT22;11252;50.596;17.648;2023-12-20T05:56:07;5.60;92.20
22173;DHT22;11252;50.596;17.648;2023-12-20T05:58:34;5.60;92.20
22173;DHT22;11252;50.596;17.648;2023-12-20T06:01:04;5.50;92.20
22173;DHT22;11252;50.596;17.648;2023-12-20T06:03:31;5.50;92.20
22173;DHT22;11252;50.596;17.648;2023-12-20T06:05:58;5.50;92.20
22173;DHT22;11252;50.596;17.648;2023-12-20T06:08:41;5.40;92.20
22173;DHT22;11252;50.596;17.648;2023-12-20T06:11:10;5.40;92.20
22173;DHT22;11252;50.596;17.648;2023-12-20T06:13:37;5.40;92.20
22173;DHT22;11252;50.596;17.648;2023-12-20T06:16:05;5.40;92.20
22173;DHT22;11252;50.596;17.648;2023-12-20T06:18:33;5.40;92.20
22173;DHT22;11252;50.596;17.648;2023-12-20T06:21:00;5.30;92.20
22173;DHT22;11252;50.596;17.648;2023-12-20T06:23:27;5.30;92.20
22173;DHT22;11252;50.596;17.648;2023-12-20T06:25:54;5.30;92.20
22173;DHT22;11252;50.596;17.648;2023-12-20T06:28:21;5.30;92.20
22173;DHT22;11252;50.596;17.648;2023-12-20T06:30:48;5.30;92.20
22173;DHT22;11252;50.596;17.648;2023-12-20T06:33:16;5.30;92.20
22173;DHT22;11252;50.596;17.648;2023-12-20T06:35:45;5.20;92.20
22173;DHT22;11252;50.596;17.648;2023-12-20T06:38:12;5.20;92.20
22173;DHT22;11252;50.596;17.648;2023-12-20T06:40:39;5.20;92.20
22173;DHT22;11252;50.596;17.648;2023-12-20T06:43:06;5.20;92.20
22173;DHT22;11252;50.596;17.648;2023-12-20T06:45:46;5.10;92.20
22173;DHT22;11252;50.596;17.648;2023-12-20T06:48:13;5.10;92.20
22173;DHT22;11252;50.596;17.648;2023-12-20T06:50:40;5.10;92.20
22173;DHT22;11252;50.596;17.648;2023-12-20T06:53:08;5.10;92.20
22173;DHT22;11252;50.596;17.648;2023-12-20T06:55:35;5.10;92.20
22173;DHT22;11252;50.596;17.648;2023-12-20T06:58:04;5.10;92.20
22173;DHT22;11252;50.596;17.648;2023-12-20T07:00:32;5.10;92.20
22173;DHT22;11252;50.596;17.648;2023-12-20T07:02:59;5.10;92.20
22173;DHT22;11252;50.596;17.648;2023-12-20T07:05:26;5.00;92.20
22173;DHT22;11252;50.596;17.648;2023-12-20T07:07:53;5.00;92.20
22173;DHT22;11252;50.596;17.648;2023-12-20T07:10:20;5.00;92.20
22173;DHT22;11252;50.596;17.648;2023-12-20T07:12:48;5.00;92.20
22173;DHT22;11252;50.596;17.648;2023-12-20T07:15:16;5.00;92.20
22173;DHT22;11252;50.596;17.648;2023-12-20T07:17:43;5.00;92.20
22173;DHT22;11252;50.596;17.648;2023-12-20T07:20:11;5.00;92.20
22173;DHT22;11252;50.596;17.648;2023-12-20T07:22:39;5.00;92.20
22173;DHT22;11252;50.596;17.648;2023-12-20T07:25:06;5.00;92.20
22173;DHT22;11252;50.596;17.648;2023-12-20T07:27:33;4.90;92.20
22173;DHT22;11252;50.596;17.648;2023-12-20T07:30:00;4.90;92.20
22173;DHT22;11252;50.596;17.648;2023-12-20T07:32:27;4.90;92.20
22173;DHT22;11252;50.596;17.648;2023-12-20T07:34:55;4.90;92.20
22173;DHT22;11252;50.596;17.648;2023-12-20T07:37:22;4.90;92.20
22173;DHT22;11252;50.596;17.648;2023-12-20T07:39:49;4.90;92.20
22173;DHT22;11252;50.596;17.648;2023-12-20T07:42:16;4.90;92.20
22173;DHT22;11252;50.596;17.648;2023-12-20T07:44:44;4.90;92.20
22173;DHT22;11252;50.596;17.648;2023-12-20T07:47:11;4.90;92.20
22173;DHT22;11252;50.596;17.648;2023-12-20T07:49:42;4.90;92.20
22173;DHT22;11252;50.596;17.648;2023-12-20T07:52:09;4.90;92.20
22173;DHT22;11252;50.596;17.648;2023-12-20T07:54:36;4.90;92.20
22173;DHT22;11252;50.596;17.648;2023-12-20T07:57:03;4.90;92.20
22173;DHT22;11252;50.596;17.648;2023-12-20T07:59:30;4.90;92.20
22173;DHT22;11252;50.596;17.648;2023-12-20T08:01:59;4.90;92.20
22173;DHT22;11252;50.596;17.648;2023-12-20T08:04:27;4.90;92.20
22173;DHT22;11252;50.596;17.648;2023-12-20T08:06:54;4.80;92.20
22173;DHT22;11252;50.596;17.648;2023-12-20T08:09:21;4.80;92.20
22173;DHT22;11252;50.596;17.648;2023-12-20T08:11:48;4.90;92.20
22173;DHT22;11252;50.596;17.648;2023-12-20T08:14:15;4.90;92.20
22173;DHT22;11252;50.596;17.648;2023-12-20T08:16:43;4.90;92.20
22173;DHT22;11252;50.596;17.648;2023-12-20T08:19:10;4.90;92.20
22173;DHT22;11252;50.596;17.648;2023-12-20T08:21:37;4.90;92.20
22173;DHT22;11252;50.596;17.648;2023-12-20T08:24:05;4.90;92.20
22173;DHT22;11252;50.596;17.648;2023-12-20T08:26:33;4.90;92.20
22173;DHT22;11252;50.596;17.648;2023-12-20T08:29:00;4.90;92.20
22173;DHT22;11252;50.596;17.648;2023-12-20T08:31:28;4.90;92.20
22173;DHT22;11252;50.596;17.648;2023-12-20T08:33:56;4.90;92.20
22173;DHT22;11252;50.596;17.648;2023-12-20T08:36:23;4.90;92.20
22173;DHT22;11252;50.596;17.648;2023-12-20T08:38:51;5.00;92.20
22173;DHT22;11252;50.596;17.648;2023-12-20T08:41:18;5.00;92.20
22173;DHT22;11252;50.596;17.648;2023-12-20T08:43:45;5.00;92.20
22173;DHT22;11252;50.596;17.648;2023-12-20T08:46:14;5.00;92.20
22173;DHT22;11252;50.596;17.648;2023-12-20T08:48:41;5.00;92.20
22173;DHT22;11252;50.596;17.648;2023-12-20T08:51:10;5.10;92.20
22173;DHT22;11252;50.596;17.648;2023-12-20T08:53:37;5.10;92.20
22173;DHT22;11252;50.596;17.648;2023-12-20T08:56:04;5.10;92.20
22173;DHT22;11252;50.596;17.648;2023-12-20T08:58:32;5.20;92.20
22173;DHT22;11252;50.596;17.648;2023-12-20T09:01:00;5.10;92.20
22173;DHT22;11252;50.596;17.648;2023-12-20T09:03:27;5.20;92.20
22173;DHT22;11252;50.596;17.648;2023-12-20T09:05:54;5.20;92.20
22173;DHT22;11252;50.596;17.648;2023-12-20T09:08:21;5.20;92.20
22173;DHT22;11252;50.596;17.648;2023-12-20T09:10:48;5.30;92.20
22173;DHT22;11252;50.596;17.648;2023-12-20T09:13:15;5.30;92.20
22173;DHT22;11252;50.596;17.648;2023-12-20T09:15:42;5.30;92.20
22173;DHT22;11252;50.596;17.648;2023-12-20T09:18:10;5.40;92.20
22173;DHT22;11252;50.596;17.648;2023-12-20T09:20:37;5.40;92.20
22173;DHT22;11252;50.596;17.648;2023-12-20T09:23:09;5.40;92.20
22173;DHT22;11252;50.596;17.648;2023-12-20T09:25:36;5.30;92.20
22173;DHT22;11252;50.596;17.648;2023-12-20T09:28:03;5.30;92.20
22173;DHT22;11252;50.596;17.648;2023-12-20T09:30:31;5.40;92.20
22173;DHT22;11252;50.596;17.648;2023-12-20T09:32:58;5.40;92.20
22173;DHT22;11252;50.596;17.648;2023-12-20T09:35:25;5.40;92.20
22173;DHT22;11252;50.596;17.648;2023-12-20T09:37:53;5.40;92.20
22173;DHT22;11252;50.596;17.648;2023-12-20T09:40:20;5.40;92.20
22173;DHT22;11252;50.596;17.648;2023-12-20T09:42:48;5.40;92.20
22173;DHT22;11252;50.596;17.648;2023-12-20T09:45:20;5.40;92.20
22173;DHT22;11252;50.596;17.648;2023-12-20T09:47:58;5.40;92.20
22173;DHT22;11252;50.596;17.648;2023-12-20T09:50:26;5.40;92.20
22173;DHT22;11252;50.596;17.648;2023-12-20T09:52:53;5.40;92.20
22173;DHT22;11252;50.596;17.648;2023-12-20T09:55:25;5.40;92.20
22173;DHT22;11252;50.596;17.648;2023-12-20T09:57:53;5.40;92.20
22173;DHT22;11252;50.596;17.648;2023-12-20T10:00:21;5.40;92.20
22173;DHT22;11252;50.596;17.648;2023-12-20T10:02:59;5.50;92.20
22173;DHT22;11252;50.596;17.648;2023-12-20T10:05:34;5.50;92.20
22173;DHT22;11252;50.596;17.648;2023-12-20T10:08:01;5.50;92.20
22173;DHT22;11252;50.596;17.648;2023-12-20T10:10:30;5.50;92.20
22173;DHT22;11252;50.596;17.648;2023-12-20T10:13:12;5.50;92.20
22173;DHT22;11252;50.596;17.648;2023-12-20T10:15:40;5.50;92.20
22173;DHT22;11252;50.596;17.648;2023-12-20T10:18:09;5.40;92.20
22173;DHT22;11252;50.596;17.648;2023-12-20T10:20:37;5.40;92.20
22173;DHT22;11252;50.596;17.648;2023-12-20T10:23:04;5.50;92.20
22173;DHT22;11252;50.596;17.648;2023-12-20T10:25:31;5.50;92.20
22173;DHT22;11252;50.596;17.648;2023-12-20T10:28:15;5.50;92.20
22173;DHT22;11252;50.596;17.648;2023-12-20T10:30:48;5.50;92.20
22173;DHT22;11252;50.596;17.648;2023-12-20T10:33:25;5.40;92.20
22173;DHT22;11252;50.596;17.648;2023-12-20T10:36:02;5.40;92.20
22173;DHT22;11252;50.596;17.648;2023-12-20T10:38:30;5.50;92.20
22173;DHT22;11252;50.596;17.648;2023-12-20T10:40:58;5.50;92.20
22173;DHT22;11252;50.596;17.648;2023-12-20T10:43:28;5.60;92.20
22173;DHT22;11252;50.596;17.648;2023-12-20T10:45:58;5.60;92.20
22173;DHT22;11252;50.596;17.648;2023-12-20T10:48:26;5.70;92.20
22173;DHT22;11252;50.596;17.648;2023-12-20T10:50:58;5.80;92.20
22173;DHT22;11252;50.596;17.648;2023-12-20T10:53:27;5.90;92.20
22173;DHT22;11252;50.596;17.648;2023-12-20T10:55:55;6.00;92.20
22173;DHT22;11252;50.596;17.648;2023-12-20T10:58:26;6.10;92.20
22173;DHT22;11252;50.596;17.648;2023-12-20T11:01:00;6.20;92.20
22173;DHT22;11252;50.596;17.648;2023-12-20T11:03:35;6.40;92.20
22173;DHT22;11252;50.596;17.648;2023-12-20T11:12:13;6.60;92.20
22173;DHT22;11252;50.596;17.648;2023-12-20T11:15:03;6.50;92.20
22173;DHT22;11252;50.596;17.648;2023-12-20T11:17:32;6.40;92.20
22173;DHT22;11252;50.596;17.648;2023-12-20T11:22:31;6.50;92.20
22173;DHT22;11252;50.596;17.648;2023-12-20T11:25:07;6.50;92.20
22173;DHT22;11252;50.596;17.648;2023-12-20T11:27:41;6.50;92.20
22173;DHT22;11252;50.596;17.648;2023-12-20T11:30:11;6.50;92.20
22173;DHT22;11252;50.596;17.648;2023-12-20T11:32:40;6.50;92.20
22173;DHT22;11252;50.596;17.648;2023-12-20T11:37:40;6.40;92.20
22173;DHT22;11252;50.596;17.648;2023-12-20T11:40:14;6.30;92.20
22173;DHT22;11252;50.596;17.648;2023-12-20T11:42:49;6.30;92.20
22173;DHT22;11252;50.596;17.648;2023-12-20T11:45:19;6.30;92.20
22173;DHT22;11252;50.596;17.648;2023-12-20T11:47:49;6.30;92.20
22173;DHT22;11252;50.596;17.648;2023-12-20T11:50:18;6.30;92.20
22173;DHT22;11252;50.596;17.648;2023-12-20T11:52:46;6.30;92.20
22173;DHT22;11252;50.596;17.648;2023-12-20T11:55:13;6.20;92.20
22173;DHT22;11252;50.596;17.648;2023-12-20T11:57:42;6.20;92.20
22173;DHT22;11252;50.596;17.648;2023-12-20T12:00:10;6.10;92.20
22173;DHT22;11252;50.596;17.648;2023-12-20T12:02:38;6.20;92.20
22173;DHT22;11252;50.596;17.648;2023-12-20T12:05:05;6.20;92.20
22173;DHT22;11252;50.596;17.648;2023-12-20T12:07:34;6.30;92.20
22173;DHT22;11252;50.596;17.648;2023-12-20T12:10:04;6.40;92.20
22173;DHT22;11252;50.596;17.648;2023-12-20T12:12:31;6.40;92.20
22173;DHT22;11252;50.596;17.648;2023-12-20T12:14:59;6.30;92.20
22173;DHT22;11252;50.596;17.648;2023-12-20T12:17:26;6.30;92.20
22173;DHT22;11252;50.596;17.648;2023-12-20T12:20:03;6.30;92.20
22173;DHT22;11252;50.596;17.648;2023-12-20T12:22:31;6.30;92.20
22173;DHT22;11252;50.596;17.648;2023-12-20T12:25:09;6.20;92.20
22173;DHT22;11252;50.596;17.648;2023-12-20T12:27:38;6.30;92.20
22173;DHT22;11252;50.596;17.648;2023-12-20T12:30:07;6.40;92.20
22173;DHT22;11252;50.596;17.648;2023-12-20T12:32:36;6.40;92.20
22173;DHT22;11252;50.596;17.648;2023-12-20T12:35:04;6.40;92.20
22173;DHT22;11252;50.596;17.648;2023-12-20T12:37:38;6.40;92.20
22173;DHT22;11252;50.596;17.648;2023-12-20T12:40:13;6.50;92.20
22173;DHT22;11252;50.596;17.648;2023-12-20T12:42:42;6.50;92.20
22173;DHT22;11252;50.596;17.648;2023-12-20T12:45:11;6.70;92.20
22173;DHT22;11252;50.596;17.648;2023-12-20T12:47:42;6.80;92.20
22173;DHT22;11252;50.596;17.648;2023-12-20T12:50:10;6.70;92.20
22173;DHT22;11252;50.596;17.648;2023-12-20T12:52:37;6.60;92.20
22173;DHT22;11252;50.596;17.648;2023-12-20T12:55:06;6.60;92.20
22173;DHT22;11252;50.596;17.648;2023-12-20T12:57:33;6.80;92.20
22173;DHT22;11252;50.596;17.648;2023-12-20T13:00:00;6.90;92.20
22173;DHT22;11252;50.596;17.648;2023-12-20T13:02:29;7.10;92.20
22173;DHT22;11252;50.596;17.648;2023-12-20T13:04:58;7.30;92.20
22173;DHT22;11252;50.596;17.648;2023-12-20T13:07:26;7.80;92.20
22173;DHT22;11252;50.596;17.648;2023-12-20T13:09:53;8.40;92.20
22173;DHT22;11252;50.596;17.648;2023-12-20T13:12:20;8.90;92.20
22173;DHT22;11252;50.596;17.648;2023-12-20T13:14:48;9.70;92.20
22173;DHT22;11252;50.596;17.648;2023-12-20T13:17:15;10.20;92.20
22173;DHT22;11252;50.596;17.648;2023-12-20T13:19:43;10.50;92.20
22173;DHT22;11252;50.596;17.648;2023-12-20T13:22:10;10.70;92.20
22173;DHT22;11252;50.596;17.648;2023-12-20T13:24:37;10.90;92.20
22173;DHT22;11252;50.596;17.648;2023-12-20T13:27:04;11.30;92.20
22173;DHT22;11252;50.596;17.648;2023-12-20T13:29:31;11.40;91.20
22173;DHT22;11252;50.596;17.648;2023-12-20T13:31:59;11.50;90.00
22173;DHT22;11252;50.596;17.648;2023-12-20T13:34:26;11.30;89.30
22173;DHT22;11252;50.596;17.648;2023-12-20T13:36:53;10.60;90.90
22173;DHT22;11252;50.596;17.648;2023-12-20T13:39:20;10.00;91.70
22173;DHT22;11252;50.596;17.648;2023-12-20T13:41:48;9.50;92.20
22173;DHT22;11252;50.596;17.648;2023-12-20T13:44:15;8.90;92.20
22173;DHT22;11252;50.596;17.648;2023-12-20T13:46:42;8.60;92.20
22173;DHT22;11252;50.596;17.648;2023-12-20T13:49:09;8.40;92.20
22173;DHT22;11252;50.596;17.648;2023-12-20T13:51:37;8.10;92.20
22173;DHT22;11252;50.596;17.648;2023-12-20T13:54:04;7.90;92.20
22173;DHT22;11252;50.596;17.648;2023-12-20T13:56:31;7.50;92.20
22173;DHT22;11252;50.596;17.648;2023-12-20T13:59:09;7.30;92.20
22173;DHT22;11252;50.596;17.648;2023-12-20T14:01:36;7.20;92.20
22173;DHT22;11252;50.596;17.648;2023-12-20T14:04:03;7.10;92.20
22173;DHT22;11252;50.596;17.648;2023-12-20T14:06:31;7.10;92.20
22173;DHT22;11252;50.596;17.648;2023-12-20T14:08:59;7.00;92.20
22173;DHT22;11252;50.596;17.648;2023-12-20T14:11:27;6.90;92.20
22173;DHT22;11252;50.596;17.648;2023-12-20T14:13:54;6.90;92.20
22173;DHT22;11252;50.596;17.648;2023-12-20T14:16:24;6.90;92.20
22173;DHT22;11252;50.596;17.648;2023-12-20T14:18:52;6.90;92.20
22173;DHT22;11252;50.596;17.648;2023-12-20T14:21:19;6.80;92.20
22173;DHT22;11252;50.596;17.648;2023-12-20T14:23:46;6.80;92.20
22173;DHT22;11252;50.596;17.648;2023-12-20T14:26:15;6.80;92.20
22173;DHT22;11252;50.596;17.648;2023-12-20T14:28:42;6.80;92.20
22173;DHT22;11252;50.596;17.648;2023-12-20T14:31:09;6.70;92.20
22173;DHT22;11252;50.596;17.648;2023-12-20T14:33:37;6.70;92.20
22173;DHT22;11252;50.596;17.648;2023-12-20T14:36:06;6.60;92.20
22173;DHT22;11252;50.596;17.648;2023-12-20T14:38:33;6.60;92.20
22173;DHT22;11252;50.596;17.648;2023-12-20T14:41:00;6.60;92.20
22173;DHT22;11252;50.596;17.648;2023-12-20T14:43:30;6.60;92.20
22173;DHT22;11252;50.596;17.648;2023-12-20T14:45:57;6.50;92.20
22173;DHT22;11252;50.596;17.648;2023-12-20T14:48:24;6.50;92.20
22173;DHT22;11252;50.596;17.648;2023-12-20T14:50:54;6.40;92.20
22173;DHT22;11252;50.596;17.648;2023-12-20T14:53:21;6.40;92.20
22173;DHT22;11252;50.596;17.648;2023-12-20T14:55:49;6.30;92.20
22173;DHT22;11252;50.596;17.648;2023-12-20T14:58:17;6.30;92.20
22173;DHT22;11252;50.596;17.648;2023-12-20T15:00:44;6.30;92.20
22173;DHT22;11252;50.596;17.648;2023-12-20T15:03:12;6.30;92.20
22173;DHT22;11252;50.596;17.648;2023-12-20T15:05:40;6.20;92.20
22173;DHT22;11252;50.596;17.648;2023-12-20T15:08:07;6.20;92.20
22173;DHT22;11252;50.596;17.648;2023-12-20T15:10:35;6.10;92.20
22173;DHT22;11252;50.596;17.648;2023-12-20T15:13:02;6.10;92.20
22173;DHT22;11252;50.596;17.648;2023-12-20T15:15:30;6.10;92.20
22173;DHT22;11252;50.596;17.648;2023-12-20T15:18:02;6.00;92.20
22173;DHT22;11252;50.596;17.648;2023-12-20T15:20:30;6.00;92.20
22173;DHT22;11252;50.596;17.648;2023-12-20T15:23:00;5.90;92.20
22173;DHT22;11252;50.596;17.648;2023-12-20T15:25:34;5.80;92.20
22173;DHT22;11252;50.596;17.648;2023-12-20T15:28:03;5.70;92.20
22173;DHT22;11252;50.596;17.648;2023-12-20T15:30:30;5.60;92.20
22173;DHT22;11252;50.596;17.648;2023-12-20T15:32:57;5.70;92.20
22173;DHT22;11252;50.596;17.648;2023-12-20T15:35:24;5.60;92.20
22173;DHT22;11252;50.596;17.648;2023-12-20T15:37:52;5.60;92.20
22173;DHT22;11252;50.596;17.648;2023-12-20T15:40:19;5.70;92.20
22173;DHT22;11252;50.596;17.648;2023-12-20T15:42:48;5.70;92.20
22173;DHT22;11252;50.596;17.648;2023-12-20T15:45:15;5.70;92.20
22173;DHT22;11252;50.596;17.648;2023-12-20T15:47:42;5.80;92.20